createdAt,value
2023-02-15T00:01:44.422Z,11.70
2023-02-15T00:04:13.417Z,11.83
2023-02-15T00:06:40.410Z,12.13
2023-02-15T00:09:10.767Z,12.13
2023-02-15T00:12:04.304Z,11.60
2023-02-15T00:14:31.453Z,11.50
2023-02-15T00:17:00.835Z,10.97
2023-02-15T00:19:27.571Z,11.83
2023-02-15T00:21:54.189Z,10.87
2023-02-15T00:24:20.888Z,10.87
2023-02-15T00:26:55.369Z,11.37
2023-02-15T00:29:22.113Z,9.87
2023-02-15T00:31:49.303Z,10.50
2023-02-15T00:34:21.352Z,10.70
2023-02-15T00:36:48.597Z,10.80
2023-02-15T00:39:16.704Z,11.10
2023-02-15T00:41:43.507Z,10.73
2023-02-15T00:44:10.648Z,10.90
2023-02-15T00:46:37.628Z,10.07
2023-02-15T00:49:05.064Z,10.03
2023-02-15T00:51:32.624Z,10.03
2023-02-15T00:53:59.879Z,9.97
2023-02-15T00:56:29.282Z,10.63
2023-02-15T00:58:56.040Z,10.50
2023-02-15T01:01:22.841Z,10.10
2023-02-15T01:03:49.488Z,10.53
2023-02-15T01:06:17.576Z,10.63
2023-02-15T01:08:45.874Z,9.80
2023-02-15T01:11:15.580Z,10.60
2023-02-15T01:13:48.493Z,10.77
2023-02-15T01:16:15.215Z,9.73
2023-02-15T01:18:41.910Z,10.30
2023-02-15T01:21:19.908Z,9.67
2023-02-15T01:23:46.936Z,9.67
2023-02-15T01:26:15.081Z,9.87
2023-02-15T01:28:45.442Z,9.33
2023-02-15T01:31:15.735Z,10.00
2023-02-15T01:33:42.635Z,9.23
2023-02-15T01:36:09.310Z,9.67
2023-02-15T01:38:36.906Z,9.20
2023-02-15T01:41:22.817Z,9.07
2023-02-15T01:43:57.876Z,9.43
2023-02-15T01:46:29.350Z,9.10
2023-02-15T01:49:09.091Z,9.33
2023-02-15T01:51:37.820Z,9.23
2023-02-15T01:54:28.566Z,9.37
2023-02-15T01:57:03.844Z,9.63
2023-02-15T01:59:33.355Z,9.10
2023-02-15T02:02:00.820Z,8.90
2023-02-15T02:04:32.055Z,9.30
2023-02-15T02:06:59.070Z,9.37
2023-02-15T02:09:25.795Z,8.60
2023-02-15T02:11:55.047Z,9.33
2023-02-15T02:14:25.319Z,8.70
2023-02-15T02:17:15.590Z,8.67
2023-02-15T02:20:00.908Z,9.00
2023-02-15T02:22:39.482Z,8.97
2023-02-15T02:25:30.260Z,8.67
2023-02-15T02:27:57.392Z,9.23
2023-02-15T02:33:55.342Z,8.67
2023-02-15T02:36:41.542Z,8.43
2023-02-15T02:39:14.770Z,9.20
2023-02-15T02:41:53.409Z,8.80
2023-02-15T02:44:32.528Z,8.63
2023-02-15T02:47:13.607Z,8.37
2023-02-15T02:49:42.756Z,8.60
2023-02-15T02:52:45.114Z,8.33
2023-02-15T02:55:21.694Z,8.30
2023-02-15T02:58:23.135Z,8.70
2023-02-15T03:00:54.772Z,8.70
2023-02-15T03:03:38.048Z,8.40
2023-02-15T03:06:10.100Z,9.13
2023-02-15T03:08:44.364Z,8.07
2023-02-15T03:11:12.735Z,7.83
2023-02-15T03:13:41.373Z,7.90
2023-02-15T03:16:29.073Z,8.00
2023-02-15T03:19:12.137Z,7.67
2023-02-15T03:21:50.477Z,7.43
2023-02-15T03:24:23.122Z,8.30
2023-02-15T03:26:53.167Z,7.87
2023-02-15T03:29:21.850Z,8.00
2023-02-15T03:31:53.601Z,7.43
2023-02-15T03:34:21.035Z,8.47
2023-02-15T03:36:57.628Z,7.90
2023-02-15T03:39:36.373Z,8.00
2023-02-15T03:42:14.558Z,8.20
2023-02-15T03:47:48.337Z,7.80
2023-02-15T03:50:41.340Z,8.53
2023-02-15T03:53:11.571Z,8.10
2023-02-15T03:55:38.813Z,7.40
2023-02-15T03:58:24.273Z,7.60
2023-02-15T04:01:21.643Z,7.67
2023-02-15T04:06:24.981Z,7.73
2023-02-15T04:12:01.756Z,8.20
2023-02-15T04:14:47.410Z,8.23
2023-02-15T04:17:14.656Z,7.77
2023-02-15T04:20:00.542Z,8.13
2023-02-15T04:22:46.097Z,8.03
2023-02-15T04:25:16.140Z,7.90
2023-02-15T04:27:48.944Z,7.73
2023-02-15T04:30:17.528Z,8.00
2023-02-15T04:32:44.904Z,7.87
2023-02-15T04:35:12.610Z,8.13
2023-02-15T04:37:40.776Z,7.93
2023-02-15T04:40:09.696Z,8.37
2023-02-15T04:42:36.884Z,8.37
2023-02-15T04:45:04.247Z,7.77
2023-02-15T04:47:31.650Z,8.10
2023-02-15T04:49:58.948Z,7.90
2023-02-15T04:52:26.330Z,8.33
2023-02-15T04:54:53.733Z,7.73
2023-02-15T04:57:21.056Z,8.27
2023-02-15T04:59:48.368Z,8.37
2023-02-15T05:02:15.651Z,8.17
2023-02-15T05:04:42.852Z,8.40
2023-02-15T05:07:10.177Z,8.50
2023-02-15T05:09:37.419Z,7.87
2023-02-15T05:12:04.893Z,8.50
2023-02-15T05:14:32.090Z,8.10
2023-02-15T05:17:02.527Z,8.30
2023-02-15T05:19:29.805Z,8.77
2023-02-15T05:21:57.006Z,8.00
2023-02-15T05:24:42.774Z,8.53
2023-02-15T05:27:41.500Z,8.67
2023-02-15T05:30:12.899Z,8.23
2023-02-15T05:32:40.779Z,8.20
2023-02-15T05:35:08.879Z,8.10
2023-02-15T05:37:36.097Z,8.10
2023-02-15T05:40:03.583Z,7.60
2023-02-15T05:42:30.705Z,7.57
2023-02-15T05:44:58.018Z,7.50
2023-02-15T05:47:25.338Z,8.30
2023-02-15T05:49:52.533Z,8.07
2023-02-15T05:52:19.815Z,7.97
2023-02-15T05:54:47.101Z,7.83
2023-02-15T05:57:14.575Z,7.90
2023-02-15T05:59:42.133Z,7.33
2023-02-15T06:02:09.494Z,7.60
2023-02-15T06:04:36.819Z,8.00
2023-02-15T06:07:04.578Z,7.70
2023-02-15T06:09:31.820Z,7.23
2023-02-15T06:11:59.221Z,7.60
2023-02-15T06:14:26.508Z,7.40
2023-02-15T06:16:53.731Z,6.70
2023-02-15T06:19:22.248Z,7.87
2023-02-15T06:21:50.412Z,7.30
2023-02-15T06:24:17.968Z,6.93
2023-02-15T06:26:45.409Z,7.30
2023-02-15T06:29:12.812Z,7.20
2023-02-15T06:31:40.311Z,7.73
2023-02-15T06:34:07.746Z,6.90
2023-02-15T06:36:34.986Z,7.07
2023-02-15T06:39:04.545Z,6.60
2023-02-15T06:41:31.879Z,7.43
2023-02-15T06:43:59.286Z,7.43
2023-02-15T06:46:26.710Z,6.97
2023-02-15T06:48:54.651Z,7.03
2023-02-15T06:51:21.958Z,7.30
2023-02-15T06:53:49.418Z,7.23
2023-02-15T06:56:16.604Z,6.63
2023-02-15T06:58:45.238Z,7.10
2023-02-15T07:01:12.412Z,7.10
2023-02-15T07:03:39.674Z,6.93
2023-02-15T07:06:09.503Z,7.23
2023-02-15T07:08:38.094Z,7.20
2023-02-15T07:11:24.560Z,6.60
2023-02-15T07:13:53.693Z,7.40
2023-02-15T07:16:22.002Z,6.53
2023-02-15T07:18:49.532Z,6.97
2023-02-15T07:21:16.789Z,7.20
2023-02-15T07:23:44.085Z,6.83
2023-02-15T07:26:11.483Z,6.20
2023-02-15T07:28:38.893Z,7.43
2023-02-15T07:31:06.872Z,7.00
2023-02-15T07:33:34.935Z,6.47
2023-02-15T07:36:04.430Z,6.67
2023-02-15T07:38:34.058Z,7.27
2023-02-15T07:41:07.309Z,6.70
2023-02-15T07:43:36.527Z,7.17
2023-02-15T07:46:05.993Z,7.00
2023-02-15T07:48:35.010Z,6.93
2023-02-15T07:51:02.933Z,6.47
2023-02-15T07:56:05.095Z,7.10
2023-02-15T07:58:51.180Z,7.03
2023-02-15T08:01:33.220Z,6.73
2023-02-15T08:04:01.293Z,6.80
2023-02-15T08:06:30.772Z,7.20
2023-02-15T08:08:58.094Z,6.67
2023-02-15T08:11:33.819Z,7.10
2023-02-15T08:14:11.013Z,7.30
2023-02-15T08:19:23.856Z,6.73
2023-02-15T08:21:59.027Z,7.03
2023-02-15T08:24:29.206Z,7.00
2023-02-15T08:26:57.062Z,6.73
2023-02-15T08:29:26.234Z,6.93
2023-02-15T08:32:03.443Z,6.67
2023-02-15T08:34:32.945Z,6.67
2023-02-15T08:37:00.589Z,7.60
2023-02-15T08:39:27.892Z,6.57
2023-02-15T08:41:55.454Z,7.77
2023-02-15T08:44:24.769Z,7.47
2023-02-15T08:46:52.237Z,6.90
2023-02-15T08:49:21.999Z,7.33
2023-02-15T08:51:50.490Z,7.27
2023-02-15T08:54:20.394Z,7.07
2023-02-15T08:56:49.283Z,7.13
2023-02-15T08:59:21.877Z,7.23
2023-02-15T09:01:50.796Z,7.33
2023-02-15T09:04:18.883Z,7.23
2023-02-15T09:06:48.768Z,7.53
2023-02-15T09:09:18.371Z,7.33
2023-02-15T09:11:48.052Z,7.50
2023-02-15T09:14:22.802Z,7.20
2023-02-15T09:16:52.779Z,7.27
2023-02-15T09:19:21.268Z,7.57
2023-02-15T09:21:48.935Z,6.87
2023-02-15T09:24:17.790Z,7.57
2023-02-15T09:26:47.582Z,8.03
2023-02-15T09:29:16.174Z,7.10
2023-02-15T09:31:46.266Z,7.27
2023-02-15T09:34:15.305Z,7.63
2023-02-15T09:36:42.978Z,7.97
2023-02-15T09:39:27.899Z,7.80
2023-02-15T09:42:30.293Z,7.77
2023-02-15T09:45:00.338Z,7.23
2023-02-15T09:47:43.620Z,7.63
2023-02-15T09:50:25.614Z,7.27
2023-02-15T09:53:06.757Z,7.53
2023-02-15T09:55:36.895Z,7.43
2023-02-15T09:58:09.536Z,7.93
2023-02-15T10:01:32.258Z,7.37
2023-02-15T10:04:36.883Z,7.87
2023-02-15T10:07:22.169Z,7.13
2023-02-15T10:10:17.437Z,7.87
2023-02-15T10:13:16.745Z,7.40
2023-02-15T10:15:53.305Z,7.83
2023-02-15T10:18:40.559Z,7.87
2023-02-15T10:21:42.734Z,8.33
2023-02-15T10:24:24.027Z,7.53
2023-02-15T10:26:51.887Z,8.20
2023-02-15T10:29:31.369Z,8.20
2023-02-15T10:32:27.665Z,8.03
2023-02-15T10:35:36.143Z,8.07
2023-02-15T10:38:21.910Z,9.70
2023-02-15T10:41:11.344Z,8.93
2023-02-15T10:43:45.345Z,9.60
2023-02-15T10:46:20.174Z,9.93
2023-02-15T10:49:09.622Z,9.53
2023-02-15T10:51:51.777Z,10.10
2023-02-15T10:54:26.077Z,9.87
2023-02-15T10:57:22.586Z,10.07
2023-02-15T11:00:10.827Z,11.43
2023-02-15T11:03:02.054Z,10.80
2023-02-15T11:05:29.350Z,11.70
2023-02-15T11:07:59.125Z,10.53
2023-02-15T11:10:46.294Z,11.20
2023-02-15T11:13:18.321Z,11.30
2023-02-15T11:16:27.983Z,12.17
2023-02-15T11:19:18.428Z,12.40
2023-02-15T11:21:49.104Z,12.40
2023-02-15T11:24:19.278Z,11.27
2023-02-15T11:26:52.269Z,11.73
2023-02-15T11:29:29.322Z,11.33
2023-02-15T11:32:04.625Z,12.00
2023-02-15T11:35:01.059Z,12.23
2023-02-15T11:37:43.351Z,11.53
2023-02-15T11:40:23.198Z,12.07
2023-02-15T11:42:51.033Z,12.77
2023-02-15T11:45:25.063Z,12.43
2023-02-15T11:47:52.318Z,12.40
2023-02-15T11:50:25.705Z,12.07
2023-02-15T11:52:54.035Z,12.87
2023-02-15T11:55:22.913Z,12.30
2023-02-15T11:58:29.144Z,12.47
2023-02-15T12:01:19.385Z,13.03
2023-02-15T12:03:49.309Z,12.57
2023-02-15T12:06:25.048Z,13.47
2023-02-15T12:09:32.906Z,13.67
2023-02-15T12:12:35.926Z,11.97
2023-02-15T12:15:08.922Z,13.57
2023-02-15T12:17:56.045Z,13.67
2023-02-15T12:20:27.011Z,13.23
2023-02-15T12:23:05.577Z,12.97
2023-02-15T12:25:46.145Z,13.60
2023-02-15T12:28:32.732Z,14.43
2023-02-15T12:31:00.054Z,14.50
2023-02-15T12:33:30.899Z,13.17
2023-02-15T12:36:11.021Z,14.13
2023-02-15T12:38:38.495Z,14.23
2023-02-15T12:41:23.518Z,14.00
2023-02-15T12:44:05.409Z,14.20
2023-02-15T12:46:37.985Z,14.50
2023-02-15T12:49:13.226Z,14.57
2023-02-15T12:51:52.985Z,14.90
2023-02-15T12:54:33.650Z,14.60
2023-02-15T12:57:03.221Z,14.40
2023-02-15T12:59:30.067Z,14.47
2023-02-15T13:01:57.157Z,14.97
2023-02-15T13:04:29.320Z,14.50
2023-02-15T13:06:59.972Z,14.30
2023-02-15T13:09:28.804Z,15.17
2023-02-15T13:11:56.479Z,14.90
2023-02-15T13:14:29.976Z,14.50
2023-02-15T13:16:59.529Z,14.17
2023-02-15T13:19:41.537Z,14.73
2023-02-15T13:22:14.353Z,14.20
2023-02-15T13:24:49.502Z,14.70
2023-02-15T13:27:22.510Z,13.93
2023-02-15T13:30:00.924Z,14.87
2023-02-15T13:32:31.410Z,13.57
2023-02-15T13:35:03.163Z,14.53
2023-02-15T13:38:08.775Z,14.50
2023-02-15T13:40:40.113Z,13.67
2023-02-15T13:43:20.674Z,13.83
2023-02-15T13:45:52.062Z,13.83
2023-02-15T13:48:34.134Z,13.50
2023-02-15T13:51:25.523Z,12.23
2023-02-15T13:54:17.040Z,12.27
2023-02-15T13:57:18.625Z,12.23
2023-02-15T14:00:12.789Z,12.30
2023-02-15T14:02:50.996Z,12.80
2023-02-15T14:05:35.816Z,11.63
2023-02-15T14:08:30.682Z,11.43
2023-02-15T14:11:15.125Z,11.43
2023-02-15T14:14:12.542Z,10.87
2023-02-15T14:17:06.996Z,11.57
2023-02-15T14:20:02.157Z,12.03
2023-02-15T14:22:40.570Z,11.40
2023-02-15T14:25:23.095Z,11.17
2023-02-15T14:27:55.884Z,10.97
2023-02-15T14:30:27.685Z,11.40
2023-02-15T14:32:57.298Z,11.20
2023-02-15T14:35:27.292Z,10.50
2023-02-15T14:38:27.194Z,10.57
2023-02-15T14:41:05.385Z,11.00
2023-02-15T14:43:46.077Z,10.67
2023-02-15T14:46:32.158Z,10.30
2023-02-15T14:49:13.289Z,10.20
2023-02-15T14:51:48.791Z,10.47
2023-02-15T14:54:18.570Z,10.80
2023-02-15T14:56:46.573Z,10.30
2023-02-15T14:59:14.841Z,10.70
2023-02-15T15:01:42.572Z,10.90
2023-02-15T15:04:14.373Z,9.77
2023-02-15T15:06:45.042Z,9.83
2023-02-15T15:09:16.072Z,10.83
2023-02-15T15:11:51.335Z,11.33
2023-02-15T15:14:51.124Z,11.33
2023-02-15T15:17:33.477Z,9.70
2023-02-15T15:20:20.655Z,9.87
2023-02-15T15:22:48.393Z,10.40
2023-02-15T15:25:34.832Z,10.30
2023-02-15T15:28:01.662Z,10.90
2023-02-15T15:30:31.807Z,10.67
2023-02-15T15:33:00.524Z,10.00
2023-02-15T15:36:05.277Z,10.50
2023-02-15T15:39:06.227Z,9.90
2023-02-15T15:41:43.130Z,9.53
2023-02-15T15:44:18.609Z,9.60
2023-02-15T15:47:07.251Z,9.23
2023-02-15T15:49:36.110Z,8.83
2023-02-15T15:52:04.602Z,9.20
2023-02-15T15:54:31.564Z,9.93
2023-02-15T15:57:05.524Z,9.13
2023-02-15T15:59:35.148Z,10.10
2023-02-15T16:02:12.822Z,9.70
2023-02-15T16:04:39.494Z,9.37
2023-02-15T16:07:18.251Z,9.50
2023-02-15T16:10:07.194Z,10.20
2023-02-15T16:12:35.634Z,8.73
2023-02-15T16:15:05.942Z,9.27
2023-02-15T16:17:34.149Z,9.23
2023-02-15T16:20:24.742Z,9.20
2023-02-15T16:23:03.736Z,9.50
2023-02-15T16:25:41.662Z,9.23
2023-02-15T16:28:11.665Z,9.20
2023-02-15T16:30:40.548Z,9.27
2023-02-15T16:33:16.195Z,8.67
2023-02-15T16:36:08.640Z,9.20
2023-02-15T16:38:44.562Z,8.90
2023-02-15T16:41:31.556Z,8.77
2023-02-15T16:44:02.443Z,9.07
2023-02-15T16:46:32.458Z,9.67
2023-02-15T16:49:05.409Z,9.00
2023-02-15T16:51:34.030Z,9.50
2023-02-15T16:54:08.240Z,9.10
2023-02-15T16:56:35.529Z,8.77
2023-02-15T16:59:02.533Z,9.27
2023-02-15T17:01:31.395Z,9.53
2023-02-15T17:04:23.168Z,9.70
2023-02-15T17:06:59.582Z,9.30
2023-02-15T17:09:26.477Z,10.37
2023-02-15T17:11:53.290Z,9.17
2023-02-15T17:14:28.662Z,9.87
2023-02-15T17:17:00.717Z,9.43
2023-02-15T17:19:29.736Z,10.50
2023-02-15T17:21:59.249Z,10.50
2023-02-15T17:24:32.079Z,10.13
2023-02-15T17:27:02.015Z,10.63
2023-02-15T17:29:38.755Z,10.37
2023-02-15T17:32:11.987Z,10.63
2023-02-15T17:34:44.923Z,10.67
2023-02-15T17:37:23.700Z,11.17
2023-02-15T17:39:50.363Z,10.67
2023-02-15T17:42:17.087Z,11.77
2023-02-15T17:44:43.733Z,10.70
2023-02-15T17:47:18.868Z,11.83
2023-02-15T17:49:45.942Z,11.70
2023-02-15T17:52:14.586Z,11.67
2023-02-15T17:55:00.295Z,12.33
2023-02-15T17:57:27.054Z,11.97
2023-02-15T18:00:12.255Z,12.33
2023-02-15T18:02:57.699Z,12.40
2023-02-15T18:05:43.415Z,12.53
2023-02-15T18:08:36.972Z,12.97
2023-02-15T18:11:22.653Z,12.73
2023-02-15T18:13:49.294Z,12.57
2023-02-15T18:16:19.775Z,11.90
2023-02-15T18:18:46.794Z,13.20
2023-02-15T18:21:14.815Z,12.37
2023-02-15T18:23:42.590Z,12.93
2023-02-15T18:26:13.269Z,12.57
2023-02-15T18:28:40.160Z,12.57
2023-02-15T18:31:07.033Z,12.73
2023-02-15T18:33:40.148Z,12.30
2023-02-15T18:36:08.137Z,12.67
2023-02-15T18:38:34.892Z,12.70
2023-02-15T18:41:02.826Z,12.60
2023-02-15T18:43:29.648Z,12.80
2023-02-15T18:45:56.375Z,12.80
2023-02-15T18:48:23.060Z,12.43
2023-02-15T18:50:50.664Z,13.43
2023-02-15T18:53:21.936Z,12.80
2023-02-15T18:55:49.679Z,13.40
2023-02-15T18:58:22.362Z,13.13
2023-02-15T19:00:50.658Z,13.70
2023-02-15T19:03:19.151Z,13.10
2023-02-15T19:05:46.986Z,13.40
2023-02-15T19:08:21.965Z,12.97
2023-02-15T19:10:48.748Z,13.03
2023-02-15T19:13:15.814Z,13.03
2023-02-15T19:15:42.468Z,13.07
2023-02-15T19:18:09.110Z,13.10
2023-02-15T19:20:41.085Z,13.87
2023-02-15T19:23:28.025Z,13.03
2023-02-15T19:25:54.981Z,12.90
2023-02-15T19:28:26.367Z,13.10
2023-02-15T19:30:53.061Z,13.63
2023-02-15T19:33:20.773Z,13.03
2023-02-15T19:35:52.434Z,13.77
2023-02-15T19:38:22.165Z,13.83
2023-02-15T19:40:48.887Z,12.60
2023-02-15T19:43:25.192Z,13.33
2023-02-15T19:45:53.113Z,14.03
2023-02-15T19:48:19.957Z,13.27
2023-02-15T19:50:46.801Z,13.63
2023-02-15T19:53:27.152Z,13.90
2023-02-15T19:55:54.515Z,13.27
2023-02-15T19:58:21.879Z,13.60
2023-02-15T20:00:49.918Z,13.33
2023-02-15T20:03:17.133Z,13.20
2023-02-15T20:05:44.104Z,13.40
2023-02-15T20:08:18.556Z,13.40
2023-02-15T20:10:45.916Z,13.10
2023-02-15T20:13:18.803Z,13.80
2023-02-15T20:15:46.056Z,13.03
2023-02-15T20:18:13.154Z,13.23
2023-02-15T20:20:53.421Z,13.10
2023-02-15T20:23:34.710Z,13.07
2023-02-15T20:26:10.246Z,13.17
2023-02-15T20:28:36.910Z,13.27
2023-02-15T20:31:03.951Z,12.50
2023-02-15T20:33:30.824Z,13.53
2023-02-15T20:35:58.876Z,14.03
2023-02-15T20:38:28.160Z,13.40
2023-02-15T20:41:14.585Z,14.37
2023-02-15T20:43:41.279Z,13.97
2023-02-15T20:46:08.326Z,15.70
2023-02-15T20:48:35.135Z,15.47
2023-02-15T20:51:03.353Z,16.23
2023-02-15T20:53:30.313Z,15.87
2023-02-15T20:55:57.157Z,16.50
2023-02-15T20:58:29.305Z,17.17
2023-02-15T21:00:58.214Z,17.20
2023-02-15T21:03:27.905Z,18.20
2023-02-15T21:05:54.613Z,17.20
2023-02-15T21:08:22.760Z,17.90
2023-02-15T21:10:51.584Z,18.80
2023-02-15T21:13:28.142Z,18.90
2023-02-15T21:15:55.829Z,18.83
2023-02-15T21:18:25.003Z,19.13
2023-02-15T21:21:02.975Z,19.10
2023-02-15T21:23:35.042Z,19.53
2023-02-15T21:26:02.013Z,19.43
2023-02-15T21:28:29.875Z,18.33
2023-02-15T21:30:57.959Z,18.13
2023-02-15T21:33:25.898Z,19.00
2023-02-15T21:35:54.963Z,18.30
2023-02-15T21:38:23.681Z,17.60
2023-02-15T21:40:50.672Z,18.07
2023-02-15T21:43:39.885Z,17.20
2023-02-15T21:46:55.628Z,17.50
2023-02-15T21:49:22.367Z,18.17
2023-02-15T21:52:09.515Z,17.40
2023-02-15T21:54:36.460Z,18.63
2023-02-15T21:57:03.665Z,17.73
2023-02-15T21:59:38.569Z,16.90
2023-02-15T22:02:28.518Z,16.67
2023-02-15T22:04:55.903Z,16.73
2023-02-15T22:07:22.647Z,17.00
2023-02-15T22:09:49.557Z,16.27
2023-02-15T22:12:20.672Z,17.27
2023-02-15T22:14:51.336Z,16.30
2023-02-15T22:17:19.400Z,16.50
2023-02-15T22:19:47.465Z,17.40
2023-02-15T22:22:15.581Z,16.50
2023-02-15T22:24:42.850Z,16.40
2023-02-15T22:27:26.071Z,15.57
2023-02-15T22:29:53.925Z,17.00
2023-02-15T22:32:23.780Z,15.87
2023-02-15T22:34:52.742Z,15.80
2023-02-15T22:37:19.606Z,15.27
2023-02-15T22:39:46.344Z,14.90
2023-02-15T22:42:25.260Z,14.73
2023-02-15T22:44:54.272Z,14.23
2023-02-15T22:47:23.368Z,13.53
2023-02-15T22:49:50.414Z,13.93
2023-02-15T22:52:17.356Z,13.97
2023-02-15T22:54:44.371Z,13.43
2023-02-15T22:57:19.256Z,13.33
2023-02-15T22:59:46.379Z,13.30
2023-02-15T23:02:14.908Z,13.20
2023-02-15T23:04:42.094Z,13.23
2023-02-15T23:07:17.955Z,13.40
2023-02-15T23:09:45.066Z,12.73
2023-02-15T23:12:53.822Z,11.93
2023-02-15T23:15:20.486Z,12.20
2023-02-15T23:17:47.138Z,12.13
2023-02-15T23:20:15.178Z,12.07
2023-02-15T23:22:43.398Z,12.30
2023-02-15T23:25:11.176Z,12.50
2023-02-15T23:27:56.791Z,11.93
2023-02-15T23:30:23.701Z,12.80
2023-02-15T23:32:52.140Z,11.90
2023-02-15T23:35:19.672Z,11.50
2023-02-15T23:37:46.387Z,12.00
2023-02-15T23:40:36.507Z,12.23
2023-02-15T23:43:03.362Z,12.20
2023-02-15T23:45:37.110Z,11.43
2023-02-15T23:48:22.567Z,11.97
2023-02-15T23:50:49.234Z,11.00
2023-02-15T23:53:15.933Z,11.53
2023-02-15T23:55:44.290Z,11.67
2023-02-15T23:58:16.524Z,12.07
